sensor_id;sensor_type;location;lat;lon;timestamp;P1;durP1;ratioP1;P2;durP2;ratioP2
33104;SDS011;19476;51.448;6.674;2023-03-23T00:01:04;2.72;;;1.15;;
33104;SDS011;19476;51.448;6.674;2023-03-23T00:03:31;2.97;;;1.23;;
33104;SDS011;19476;51.448;6.674;2023-03-23T00:05:58;3.58;;;1.13;;
33104;SDS011;19476;51.448;6.674;2023-03-23T00:08:34;2.70;;;1.13;;
33104;SDS011;19476;51.448;6.674;2023-03-23T00:11:10;3.15;;;1.15;;
33104;SDS011;19476;51.448;6.674;2023-03-23T00:13:44;3.00;;;1.52;;
33104;SDS011;19476;51.448;6.674;2023-03-23T00:16:13;2.50;;;1.20;;
33104;SDS011;19476;51.448;6.674;2023-03-23T00:18:45;3.38;;;1.20;;
33104;SDS011;19476;51.448;6.674;2023-03-23T00:21:13;2.45;;;1.13;;
33104;SDS011;19476;51.448;6.674;2023-03-23T00:23:39;3.63;;;1.40;;
33104;SDS011;19476;51.448;6.674;2023-03-23T00:26:05;2.33;;;1.02;;
33104;SDS011;19476;51.448;6.674;2023-03-23T00:28:32;2.08;;;0.98;;
33104;SDS011;19476;51.448;6.674;2023-03-23T00:31:04;2.38;;;1.10;;
33104;SDS011;19476;51.448;6.674;2023-03-23T00:33:32;2.13;;;0.95;;
33104;SDS011;19476;51.448;6.674;2023-03-23T00:36:03;2.30;;;1.08;;
33104;SDS011;19476;51.448;6.674;2023-03-23T00:38:29;3.58;;;1.30;;
33104;SDS011;19476;51.448;6.674;2023-03-23T00:40:56;2.55;;;1.08;;
33104;SDS011;19476;51.448;6.674;2023-03-23T00:43:22;1.58;;;1.00;;
33104;SDS011;19476;51.448;6.674;2023-03-23T00:45:53;2.95;;;1.13;;
33104;SDS011;19476;51.448;6.674;2023-03-23T00:48:20;2.67;;;1.35;;
33104;SDS011;19476;51.448;6.674;2023-03-23T00:50:47;1.85;;;1.10;;
33104;SDS011;19476;51.448;6.674;2023-03-23T00:53:13;3.80;;;1.30;;
33104;SDS011;19476;51.448;6.674;2023-03-23T00:55:41;2.65;;;0.82;;
33104;SDS011;19476;51.448;6.674;2023-03-23T00:58:07;3.22;;;0.98;;
33104;SDS011;19476;51.448;6.674;2023-03-23T01:00:34;3.20;;;1.02;;
33104;SDS011;19476;51.448;6.674;2023-03-23T01:03:00;3.10;;;1.50;;
33104;SDS011;19476;51.448;6.674;2023-03-23T01:05:26;2.33;;;1.30;;
33104;SDS011;19476;51.448;6.674;2023-03-23T01:07:59;1.95;;;0.90;;
33104;SDS011;19476;51.448;6.674;2023-03-23T01:10:27;1.40;;;0.85;;
33104;SDS011;19476;51.448;6.674;2023-03-23T01:12:53;1.90;;;1.00;;
33104;SDS011;19476;51.448;6.674;2023-03-23T01:15:19;2.58;;;1.00;;
33104;SDS011;19476;51.448;6.674;2023-03-23T01:17:45;2.38;;;1.00;;
33104;SDS011;19476;51.448;6.674;2023-03-23T01:20:12;2.83;;;1.40;;
33104;SDS011;19476;51.448;6.674;2023-03-23T01:22:40;3.47;;;1.00;;
33104;SDS011;19476;51.448;6.674;2023-03-23T01:25:07;3.03;;;1.13;;
33104;SDS011;19476;51.448;6.674;2023-03-23T01:27:34;4.53;;;1.58;;
33104;SDS011;19476;51.448;6.674;2023-03-23T01:30:00;2.83;;;1.35;;
33104;SDS011;19476;51.448;6.674;2023-03-23T01:32:26;1.85;;;1.05;;
33104;SDS011;19476;51.448;6.674;2023-03-23T01:34:53;3.03;;;1.38;;
33104;SDS011;19476;51.448;6.674;2023-03-23T01:37:19;2.55;;;1.30;;
33104;SDS011;19476;51.448;6.674;2023-03-23T01:39:45;3.72;;;1.30;;
33104;SDS011;19476;51.448;6.674;2023-03-23T01:42:11;3.38;;;1.50;;
33104;SDS011;19476;51.448;6.674;2023-03-23T01:47:03;3.97;;;1.23;;
33104;SDS011;19476;51.448;6.674;2023-03-23T01:49:33;3.35;;;1.20;;
33104;SDS011;19476;51.448;6.674;2023-03-23T01:52:04;2.03;;;1.10;;
33104;SDS011;19476;51.448;6.674;2023-03-23T01:54:38;1.55;;;0.98;;
33104;SDS011;19476;51.448;6.674;2023-03-23T01:57:06;3.97;;;1.63;;
33104;SDS011;19476;51.448;6.674;2023-03-23T01:59:36;3.30;;;1.23;;
33104;SDS011;19476;51.448;6.674;2023-03-23T02:02:02;2.67;;;1.27;;
33104;SDS011;19476;51.448;6.674;2023-03-23T02:04:29;2.08;;;1.00;;
33104;SDS011;19476;51.448;6.674;2023-03-23T02:06:57;2.88;;;1.05;;
33104;SDS011;19476;51.448;6.674;2023-03-23T02:09:24;2.35;;;1.13;;
33104;SDS011;19476;51.448;6.674;2023-03-23T02:11:50;2.17;;;1.23;;
33104;SDS011;19476;51.448;6.674;2023-03-23T02:14:18;2.78;;;1.10;;
33104;SDS011;19476;51.448;6.674;2023-03-23T02:27:26;2.30;;;1.08;;
33104;SDS011;19476;51.448;6.674;2023-03-23T02:35:45;1.45;;;0.93;;
33104;SDS011;19476;51.448;6.674;2023-03-23T02:38:21;1.33;;;0.88;;
33104;SDS011;19476;51.448;6.674;2023-03-23T02:40:55;3.65;;;1.42;;
33104;SDS011;19476;51.448;6.674;2023-03-23T02:43:25;4.32;;;0.95;;
33104;SDS011;19476;51.448;6.674;2023-03-23T02:45:55;2.58;;;1.30;;
33104;SDS011;19476;51.448;6.674;2023-03-23T02:48:24;2.42;;;1.25;;
33104;SDS011;19476;51.448;6.674;2023-03-23T02:50:55;3.45;;;1.33;;
33104;SDS011;19476;51.448;6.674;2023-03-23T02:53:23;3.47;;;1.25;;
33104;SDS011;19476;51.448;6.674;2023-03-23T02:55:52;2.20;;;1.08;;
33104;SDS011;19476;51.448;6.674;2023-03-23T02:58:20;3.80;;;1.40;;
33104;SDS011;19476;51.448;6.674;2023-03-23T03:00:48;2.55;;;1.38;;
33104;SDS011;19476;51.448;6.674;2023-03-23T03:03:16;3.13;;;1.55;;
33104;SDS011;19476;51.448;6.674;2023-03-23T03:08:45;2.97;;;1.30;;
33104;SDS011;19476;51.448;6.674;2023-03-23T03:11:17;4.20;;;1.60;;
33104;SDS011;19476;51.448;6.674;2023-03-23T03:18:46;2.50;;;1.13;;
33104;SDS011;19476;51.448;6.674;2023-03-23T03:21:23;3.10;;;1.27;;
33104;SDS011;19476;51.448;6.674;2023-03-23T03:23:52;2.25;;;1.23;;
33104;SDS011;19476;51.448;6.674;2023-03-23T03:26:23;1.90;;;1.10;;
33104;SDS011;19476;51.448;6.674;2023-03-23T03:28:51;1.88;;;1.02;;
33104;SDS011;19476;51.448;6.674;2023-03-23T03:31:20;3.90;;;1.85;;
33104;SDS011;19476;51.448;6.674;2023-03-23T03:33:51;2.15;;;1.25;;
33104;SDS011;19476;51.448;6.674;2023-03-23T03:36:21;1.98;;;1.08;;
33104;SDS011;19476;51.448;6.674;2023-03-23T03:38:52;2.00;;;1.00;;
33104;SDS011;19476;51.448;6.674;2023-03-23T03:41:18;3.70;;;1.48;;
33104;SDS011;19476;51.448;6.674;2023-03-23T03:43:44;3.33;;;1.08;;
33104;SDS011;19476;51.448;6.674;2023-03-23T03:46:10;2.05;;;1.00;;
33104;SDS011;19476;51.448;6.674;2023-03-23T03:48:36;2.88;;;1.23;;
33104;SDS011;19476;51.448;6.674;2023-03-23T03:51:02;2.30;;;0.98;;
33104;SDS011;19476;51.448;6.674;2023-03-23T03:53:29;2.30;;;0.93;;
33104;SDS011;19476;51.448;6.674;2023-03-23T03:55:55;3.95;;;1.02;;
33104;SDS011;19476;51.448;6.674;2023-03-23T03:58:25;2.63;;;1.08;;
33104;SDS011;19476;51.448;6.674;2023-03-23T04:00:56;2.80;;;1.27;;
33104;SDS011;19476;51.448;6.674;2023-03-23T04:03:23;2.45;;;1.15;;
33104;SDS011;19476;51.448;6.674;2023-03-23T04:05:50;2.05;;;1.17;;
33104;SDS011;19476;51.448;6.674;2023-03-23T04:08:16;2.28;;;0.90;;
33104;SDS011;19476;51.448;6.674;2023-03-23T04:10:42;2.20;;;0.90;;
33104;SDS011;19476;51.448;6.674;2023-03-23T04:13:08;2.10;;;0.90;;
33104;SDS011;19476;51.448;6.674;2023-03-23T04:15:34;2.13;;;1.00;;
33104;SDS011;19476;51.448;6.674;2023-03-23T04:18:00;2.58;;;1.30;;
33104;SDS011;19476;51.448;6.674;2023-03-23T04:20:26;1.65;;;0.90;;
33104;SDS011;19476;51.448;6.674;2023-03-23T04:22:52;2.13;;;1.00;;
33104;SDS011;19476;51.448;6.674;2023-03-23T04:25:19;1.83;;;0.98;;
33104;SDS011;19476;51.448;6.674;2023-03-23T04:27:46;1.73;;;0.80;;
33104;SDS011;19476;51.448;6.674;2023-03-23T04:30:20;2.30;;;0.95;;
33104;SDS011;19476;51.448;6.674;2023-03-23T04:32:48;1.88;;;0.77;;
33104;SDS011;19476;51.448;6.674;2023-03-23T04:35:20;2.10;;;0.70;;
33104;SDS011;19476;51.448;6.674;2023-03-23T04:37:49;2.78;;;0.88;;
33104;SDS011;19476;51.448;6.674;2023-03-23T04:40:16;1.60;;;1.00;;
33104;SDS011;19476;51.448;6.674;2023-03-23T04:42:43;2.30;;;1.00;;
33104;SDS011;19476;51.448;6.674;2023-03-23T04:45:15;1.92;;;1.08;;
33104;SDS011;19476;51.448;6.674;2023-03-23T04:47:46;2.70;;;0.90;;
33104;SDS011;19476;51.448;6.674;2023-03-23T04:50:22;2.08;;;1.00;;
33104;SDS011;19476;51.448;6.674;2023-03-23T04:52:51;1.98;;;1.10;;
33104;SDS011;19476;51.448;6.674;2023-03-23T04:55:19;2.05;;;1.20;;
33104;SDS011;19476;51.448;6.674;2023-03-23T04:57:46;1.98;;;1.02;;
33104;SDS011;19476;51.448;6.674;2023-03-23T05:00:12;2.88;;;0.93;;
33104;SDS011;19476;51.448;6.674;2023-03-23T05:02:41;1.70;;;1.05;;
33104;SDS011;19476;51.448;6.674;2023-03-23T05:05:09;2.70;;;1.02;;
33104;SDS011;19476;51.448;6.674;2023-03-23T05:07:37;3.92;;;1.08;;
33104;SDS011;19476;51.448;6.674;2023-03-23T05:10:04;2.53;;;0.80;;
33104;SDS011;19476;51.448;6.674;2023-03-23T05:12:30;3.15;;;1.30;;
33104;SDS011;19476;51.448;6.674;2023-03-23T05:14:56;1.42;;;0.90;;
33104;SDS011;19476;51.448;6.674;2023-03-23T05:17:22;2.10;;;1.00;;
33104;SDS011;19476;51.448;6.674;2023-03-23T05:19:49;2.85;;;1.10;;
33104;SDS011;19476;51.448;6.674;2023-03-23T05:22:16;2.22;;;1.00;;
33104;SDS011;19476;51.448;6.674;2023-03-23T05:24:41;1.60;;;0.90;;
33104;SDS011;19476;51.448;6.674;2023-03-23T05:27:08;3.08;;;1.10;;
33104;SDS011;19476;51.448;6.674;2023-03-23T05:29:35;2.58;;;1.10;;
33104;SDS011;19476;51.448;6.674;2023-03-23T05:32:04;2.30;;;1.08;;
33104;SDS011;19476;51.448;6.674;2023-03-23T05:34:30;2.53;;;1.07;;
33104;SDS011;19476;51.448;6.674;2023-03-23T05:36:59;2.38;;;1.02;;
33104;SDS011;19476;51.448;6.674;2023-03-23T05:39:28;1.55;;;0.85;;
33104;SDS011;19476;51.448;6.674;2023-03-23T05:41:55;2.22;;;1.02;;
33104;SDS011;19476;51.448;6.674;2023-03-23T05:44:21;2.08;;;0.80;;
33104;SDS011;19476;51.448;6.674;2023-03-23T05:46:46;2.05;;;1.00;;
33104;SDS011;19476;51.448;6.674;2023-03-23T05:49:13;2.67;;;1.30;;
33104;SDS011;19476;51.448;6.674;2023-03-23T05:51:41;2.13;;;0.85;;
33104;SDS011;19476;51.448;6.674;2023-03-23T05:54:09;3.72;;;1.10;;
33104;SDS011;19476;51.448;6.674;2023-03-23T05:56:35;2.55;;;1.20;;
33104;SDS011;19476;51.448;6.674;2023-03-23T05:59:01;4.13;;;0.98;;
33104;SDS011;19476;51.448;6.674;2023-03-23T06:01:27;2.83;;;1.00;;
33104;SDS011;19476;51.448;6.674;2023-03-23T06:03:53;2.85;;;1.23;;
33104;SDS011;19476;51.448;6.674;2023-03-23T06:06:23;2.30;;;0.80;;
33104;SDS011;19476;51.448;6.674;2023-03-23T06:08:50;1.50;;;0.80;;
33104;SDS011;19476;51.448;6.674;2023-03-23T06:11:16;2.88;;;1.08;;
33104;SDS011;19476;51.448;6.674;2023-03-23T06:13:43;1.75;;;1.00;;
33104;SDS011;19476;51.448;6.674;2023-03-23T06:16:09;1.98;;;1.00;;
33104;SDS011;19476;51.448;6.674;2023-03-23T06:18:35;2.38;;;0.95;;
33104;SDS011;19476;51.448;6.674;2023-03-23T06:21:04;5.75;;;1.30;;
33104;SDS011;19476;51.448;6.674;2023-03-23T06:23:31;3.77;;;1.20;;
33104;SDS011;19476;51.448;6.674;2023-03-23T06:25:57;2.60;;;1.10;;
33104;SDS011;19476;51.448;6.674;2023-03-23T06:28:25;3.38;;;1.40;;
33104;SDS011;19476;51.448;6.674;2023-03-23T06:30:51;3.95;;;1.00;;
33104;SDS011;19476;51.448;6.674;2023-03-23T06:33:18;2.58;;;1.10;;
33104;SDS011;19476;51.448;6.674;2023-03-23T06:35:44;3.72;;;1.25;;
33104;SDS011;19476;51.448;6.674;2023-03-23T06:38:10;3.42;;;1.08;;
33104;SDS011;19476;51.448;6.674;2023-03-23T06:40:37;2.33;;;1.00;;
33104;SDS011;19476;51.448;6.674;2023-03-23T06:43:03;2.78;;;1.00;;
33104;SDS011;19476;51.448;6.674;2023-03-23T06:45:29;2.53;;;1.33;;
33104;SDS011;19476;51.448;6.674;2023-03-23T06:47:56;1.70;;;1.02;;
33104;SDS011;19476;51.448;6.674;2023-03-23T06:50:22;1.33;;;0.80;;
33104;SDS011;19476;51.448;6.674;2023-03-23T06:52:49;4.28;;;1.55;;
33104;SDS011;19476;51.448;6.674;2023-03-23T06:55:16;2.38;;;1.05;;
33104;SDS011;19476;51.448;6.674;2023-03-23T06:57:42;2.92;;;1.00;;
33104;SDS011;19476;51.448;6.674;2023-03-23T07:00:09;1.92;;;0.90;;
33104;SDS011;19476;51.448;6.674;2023-03-23T07:02:37;2.30;;;0.95;;
33104;SDS011;19476;51.448;6.674;2023-03-23T07:05:04;4.88;;;1.20;;
33104;SDS011;19476;51.448;6.674;2023-03-23T07:07:30;2.75;;;1.08;;
33104;SDS011;19476;51.448;6.674;2023-03-23T07:09:56;2.97;;;1.08;;
33104;SDS011;19476;51.448;6.674;2023-03-23T07:15:44;2.03;;;0.73;;
33104;SDS011;19476;51.448;6.674;2023-03-23T07:18:11;4.45;;;1.17;;
33104;SDS011;19476;51.448;6.674;2023-03-23T07:20:37;4.05;;;0.98;;
33104;SDS011;19476;51.448;6.674;2023-03-23T07:23:04;3.72;;;1.00;;
33104;SDS011;19476;51.448;6.674;2023-03-23T07:25:33;4.17;;;1.20;;
33104;SDS011;19476;51.448;6.674;2023-03-23T07:28:00;5.05;;;1.95;;
33104;SDS011;19476;51.448;6.674;2023-03-23T07:30:27;4.50;;;0.90;;
33104;SDS011;19476;51.448;6.674;2023-03-23T07:32:57;3.50;;;1.48;;
33104;SDS011;19476;51.448;6.674;2023-03-23T07:35:23;3.55;;;1.40;;
33104;SDS011;19476;51.448;6.674;2023-03-23T07:37:50;2.28;;;1.08;;
33104;SDS011;19476;51.448;6.674;2023-03-23T07:40:16;3.00;;;1.08;;
33104;SDS011;19476;51.448;6.674;2023-03-23T07:42:43;5.07;;;1.27;;
33104;SDS011;19476;51.448;6.674;2023-03-23T07:45:11;3.45;;;1.30;;
33104;SDS011;19476;51.448;6.674;2023-03-23T07:47:39;4.40;;;1.00;;
33104;SDS011;19476;51.448;6.674;2023-03-23T07:50:05;2.58;;;1.02;;
33104;SDS011;19476;51.448;6.674;2023-03-23T07:52:32;3.75;;;1.33;;
33104;SDS011;19476;51.448;6.674;2023-03-23T07:54:59;3.70;;;1.35;;
33104;SDS011;19476;51.448;6.674;2023-03-23T07:57:27;4.80;;;1.98;;
33104;SDS011;19476;51.448;6.674;2023-03-23T07:59:53;4.97;;;1.35;;
33104;SDS011;19476;51.448;6.674;2023-03-23T08:02:19;5.43;;;1.38;;
33104;SDS011;19476;51.448;6.674;2023-03-23T08:04:45;3.60;;;0.90;;
33104;SDS011;19476;51.448;6.674;2023-03-23T08:07:12;3.75;;;1.08;;
33104;SDS011;19476;51.448;6.674;2023-03-23T08:09:41;3.30;;;0.95;;
33104;SDS011;19476;51.448;6.674;2023-03-23T08:12:07;3.20;;;1.08;;
33104;SDS011;19476;51.448;6.674;2023-03-23T08:14:33;2.22;;;1.00;;
33104;SDS011;19476;51.448;6.674;2023-03-23T08:16:59;4.18;;;1.02;;
33104;SDS011;19476;51.448;6.674;2023-03-23T08:19:26;4.20;;;1.33;;
33104;SDS011;19476;51.448;6.674;2023-03-23T08:21:52;4.05;;;0.90;;
33104;SDS011;19476;51.448;6.674;2023-03-23T08:24:18;4.53;;;1.48;;
33104;SDS011;19476;51.448;6.674;2023-03-23T08:26:44;2.10;;;0.68;;
33104;SDS011;19476;51.448;6.674;2023-03-23T08:29:10;3.83;;;0.88;;
33104;SDS011;19476;51.448;6.674;2023-03-23T08:31:45;3.22;;;0.90;;
33104;SDS011;19476;51.448;6.674;2023-03-23T08:34:12;3.40;;;1.05;;
33104;SDS011;19476;51.448;6.674;2023-03-23T08:36:38;3.15;;;0.98;;
33104;SDS011;19476;51.448;6.674;2023-03-23T08:39:04;4.03;;;0.88;;
33104;SDS011;19476;51.448;6.674;2023-03-23T08:41:33;3.88;;;0.70;;
33104;SDS011;19476;51.448;6.674;2023-03-23T08:44:03;2.65;;;0.93;;
33104;SDS011;19476;51.448;6.674;2023-03-23T08:46:29;3.38;;;1.02;;
33104;SDS011;19476;51.448;6.674;2023-03-23T08:48:58;7.00;;;1.30;;
33104;SDS011;19476;51.448;6.674;2023-03-23T08:51:24;2.97;;;1.03;;
33104;SDS011;19476;51.448;6.674;2023-03-23T08:53:51;5.13;;;0.80;;
33104;SDS011;19476;51.448;6.674;2023-03-23T08:56:17;4.05;;;1.20;;
33104;SDS011;19476;51.448;6.674;2023-03-23T08:58:43;2.80;;;0.90;;
33104;SDS011;19476;51.448;6.674;2023-03-23T09:01:12;4.70;;;0.85;;
33104;SDS011;19476;51.448;6.674;2023-03-23T09:03:39;2.83;;;1.10;;
33104;SDS011;19476;51.448;6.674;2023-03-23T09:06:06;2.78;;;0.90;;
33104;SDS011;19476;51.448;6.674;2023-03-23T09:08:38;3.97;;;1.00;;
33104;SDS011;19476;51.448;6.674;2023-03-23T09:11:08;3.13;;;0.90;;
33104;SDS011;19476;51.448;6.674;2023-03-23T09:13:36;2.85;;;1.38;;
33104;SDS011;19476;51.448;6.674;2023-03-23T09:16:03;2.72;;;0.80;;
33104;SDS011;19476;51.448;6.674;2023-03-23T09:18:30;3.13;;;1.00;;
33104;SDS011;19476;51.448;6.674;2023-03-23T09:20:58;3.00;;;0.90;;
33104;SDS011;19476;51.448;6.674;2023-03-23T09:23:25;2.28;;;0.60;;
33104;SDS011;19476;51.448;6.674;2023-03-23T09:25:59;4.50;;;0.80;;
33104;SDS011;19476;51.448;6.674;2023-03-23T09:28:26;2.95;;;0.60;;
33104;SDS011;19476;51.448;6.674;2023-03-23T09:30:56;4.78;;;0.65;;
33104;SDS011;19476;51.448;6.674;2023-03-23T09:33:26;3.17;;;0.52;;
33104;SDS011;19476;51.448;6.674;2023-03-23T09:35:54;2.08;;;0.52;;
33104;SDS011;19476;51.448;6.674;2023-03-23T09:38:20;0.85;;;0.40;;
33104;SDS011;19476;51.448;6.674;2023-03-23T09:49:48;1.95;;;0.60;;
33104;SDS011;19476;51.448;6.674;2023-03-23T09:52:11;3.63;;;0.65;;
33104;SDS011;19476;51.448;6.674;2023-03-23T09:54:43;2.90;;;0.50;;
33104;SDS011;19476;51.448;6.674;2023-03-23T09:57:21;3.88;;;0.80;;
33104;SDS011;19476;51.448;6.674;2023-03-23T10:00:03;4.47;;;0.82;;
33104;SDS011;19476;51.448;6.674;2023-03-23T10:07:44;1.80;;;0.40;;
33104;SDS011;19476;51.448;6.674;2023-03-23T10:10:12;1.25;;;0.30;;
33104;SDS011;19476;51.448;6.674;2023-03-23T10:12:43;1.60;;;0.50;;
33104;SDS011;19476;51.448;6.674;2023-03-23T10:15:18;2.95;;;0.40;;
33104;SDS011;19476;51.448;6.674;2023-03-23T10:18:02;0.82;;;0.32;;
33104;SDS011;19476;51.448;6.674;2023-03-23T10:28:38;2.90;;;0.70;;
33104;SDS011;19476;51.448;6.674;2023-03-23T10:31:09;2.72;;;0.63;;
33104;SDS011;19476;51.448;6.674;2023-03-23T10:33:48;2.35;;;0.50;;
33104;SDS011;19476;51.448;6.674;2023-03-23T10:36:24;1.25;;;0.40;;
33104;SDS011;19476;51.448;6.674;2023-03-23T10:38:58;0.60;;;0.30;;
33104;SDS011;19476;51.448;6.674;2023-03-23T10:41:39;1.60;;;0.30;;
33104;SDS011;19476;51.448;6.674;2023-03-23T10:44:21;1.38;;;0.30;;
33104;SDS011;19476;51.448;6.674;2023-03-23T10:47:06;1.60;;;0.32;;
33104;SDS011;19476;51.448;6.674;2023-03-23T10:49:41;0.82;;;0.20;;
33104;SDS011;19476;51.448;6.674;2023-03-23T10:52:34;1.77;;;0.40;;
33104;SDS011;19476;51.448;6.674;2023-03-23T10:55:20;0.60;;;0.30;;
33104;SDS011;19476;51.448;6.674;2023-03-23T10:58:04;2.78;;;0.55;;
33104;SDS011;19476;51.448;6.674;2023-03-23T11:00:45;0.82;;;0.40;;
33104;SDS011;19476;51.448;6.674;2023-03-23T11:05:42;1.48;;;0.50;;
33104;SDS011;19476;51.448;6.674;2023-03-23T11:13:41;1.38;;;0.30;;
33104;SDS011;19476;51.448;6.674;2023-03-23T11:16:09;0.88;;;0.25;;
33104;SDS011;19476;51.448;6.674;2023-03-23T11:18:41;1.55;;;0.30;;
33104;SDS011;19476;51.448;6.674;2023-03-23T11:21:11;1.33;;;0.30;;
33104;SDS011;19476;51.448;6.674;2023-03-23T11:23:42;0.32;;;0.20;;
33104;SDS011;19476;51.448;6.674;2023-03-23T11:26:29;1.50;;;0.40;;
33104;SDS011;19476;51.448;6.674;2023-03-23T11:29:15;1.40;;;0.50;;
33104;SDS011;19476;51.448;6.674;2023-03-23T11:34:25;1.48;;;0.32;;
33104;SDS011;19476;51.448;6.674;2023-03-23T11:37:01;0.95;;;0.43;;
33104;SDS011;19476;51.448;6.674;2023-03-23T11:39:34;1.92;;;0.40;;
33104;SDS011;19476;51.448;6.674;2023-03-23T11:42:12;0.40;;;0.22;;
33104;SDS011;19476;51.448;6.674;2023-03-23T11:44:49;2.15;;;0.50;;
33104;SDS011;19476;51.448;6.674;2023-03-23T11:47:24;2.28;;;0.77;;
33104;SDS011;19476;51.448;6.674;2023-03-23T11:50:26;1.00;;;0.38;;
33104;SDS011;19476;51.448;6.674;2023-03-23T11:58:22;1.50;;;0.55;;
33104;SDS011;19476;51.448;6.674;2023-03-23T12:00:58;1.20;;;0.45;;
33104;SDS011;19476;51.448;6.674;2023-03-23T12:12:03;1.60;;;0.60;;
33104;SDS011;19476;51.448;6.674;2023-03-23T12:14:48;1.80;;;0.63;;
33104;SDS011;19476;51.448;6.674;2023-03-23T12:45:21;1.42;;;0.50;;
33104;SDS011;19476;51.448;6.674;2023-03-23T12:48:02;1.05;;;0.52;;
33104;SDS011;19476;51.448;6.674;2023-03-23T12:50:34;1.67;;;0.65;;
33104;SDS011;19476;51.448;6.674;2023-03-23T12:53:28;1.60;;;0.50;;
33104;SDS011;19476;51.448;6.674;2023-03-23T12:56:10;2.15;;;0.57;;
33104;SDS011;19476;51.448;6.674;2023-03-23T12:58:42;2.78;;;0.70;;
33104;SDS011;19476;51.448;6.674;2023-03-23T13:01:17;1.67;;;0.60;;
33104;SDS011;19476;51.448;6.674;2023-03-23T13:04:08;1.70;;;0.60;;
33104;SDS011;19476;51.448;6.674;2023-03-23T13:06:44;1.15;;;0.43;;
33104;SDS011;19476;51.448;6.674;2023-03-23T13:12:09;3.22;;;1.00;;
33104;SDS011;19476;51.448;6.674;2023-03-23T13:17:16;1.80;;;0.70;;
33104;SDS011;19476;51.448;6.674;2023-03-23T13:25:27;2.00;;;0.80;;
33104;SDS011;19476;51.448;6.674;2023-03-23T13:28:23;2.60;;;0.60;;
33104;SDS011;19476;51.448;6.674;2023-03-23T13:30:57;2.97;;;0.80;;
33104;SDS011;19476;51.448;6.674;2023-03-23T13:33:38;2.47;;;0.90;;
33104;SDS011;19476;51.448;6.674;2023-03-23T13:36:14;4.18;;;1.27;;
33104;SDS011;19476;51.448;6.674;2023-03-23T13:38:47;2.28;;;0.90;;
33104;SDS011;19476;51.448;6.674;2023-03-23T13:41:16;1.15;;;0.73;;
33104;SDS011;19476;51.448;6.674;2023-03-23T13:43:45;2.25;;;0.85;;
33104;SDS011;19476;51.448;6.674;2023-03-23T13:46:22;1.92;;;0.85;;
33104;SDS011;19476;51.448;6.674;2023-03-23T13:49:02;3.33;;;0.63;;
33104;SDS011;19476;51.448;6.674;2023-03-23T13:51:53;2.58;;;1.00;;
33104;SDS011;19476;51.448;6.674;2023-03-23T13:54:38;2.47;;;1.25;;
33104;SDS011;19476;51.448;6.674;2023-03-23T13:59:57;1.77;;;0.70;;
33104;SDS011;19476;51.448;6.674;2023-03-23T14:02:38;4.68;;;0.90;;
33104;SDS011;19476;51.448;6.674;2023-03-23T14:07:56;1.90;;;0.60;;
33104;SDS011;19476;51.448;6.674;2023-03-23T14:10:35;4.40;;;1.13;;
33104;SDS011;19476;51.448;6.674;2023-03-23T14:13:05;2.42;;;0.80;;
33104;SDS011;19476;51.448;6.674;2023-03-23T14:15:43;2.05;;;0.80;;
33104;SDS011;19476;51.448;6.674;2023-03-23T14:18:19;4.45;;;1.40;;
33104;SDS011;19476;51.448;6.674;2023-03-23T14:20:49;2.37;;;1.33;;
33104;SDS011;19476;51.448;6.674;2023-03-23T14:23:16;4.43;;;1.42;;
33104;SDS011;19476;51.448;6.674;2023-03-23T14:25:43;3.63;;;1.50;;
33104;SDS011;19476;51.448;6.674;2023-03-23T14:28:18;3.70;;;1.50;;
33104;SDS011;19476;51.448;6.674;2023-03-23T14:30:47;3.83;;;1.30;;
33104;SDS011;19476;51.448;6.674;2023-03-23T14:33:17;3.83;;;1.40;;
33104;SDS011;19476;51.448;6.674;2023-03-23T14:35:45;3.78;;;1.48;;
33104;SDS011;19476;51.448;6.674;2023-03-23T14:38:18;3.45;;;1.63;;
33104;SDS011;19476;51.448;6.674;2023-03-23T14:40:48;5.20;;;1.40;;
33104;SDS011;19476;51.448;6.674;2023-03-23T14:43:15;2.78;;;1.05;;
33104;SDS011;19476;51.448;6.674;2023-03-23T14:45:44;2.78;;;1.20;;
33104;SDS011;19476;51.448;6.674;2023-03-23T14:48:14;2.30;;;0.85;;
33104;SDS011;19476;51.448;6.674;2023-03-23T14:50:42;2.30;;;1.17;;
33104;SDS011;19476;51.448;6.674;2023-03-23T14:53:31;4.43;;;1.42;;
33104;SDS011;19476;51.448;6.674;2023-03-23T14:56:17;3.83;;;1.10;;
33104;SDS011;19476;51.448;6.674;2023-03-23T14:58:49;3.15;;;1.10;;
33104;SDS011;19476;51.448;6.674;2023-03-23T15:06:24;4.13;;;1.17;;
33104;SDS011;19476;51.448;6.674;2023-03-23T15:08:54;2.47;;;0.52;;
33104;SDS011;19476;51.448;6.674;2023-03-23T15:11:28;2.70;;;0.82;;
33104;SDS011;19476;51.448;6.674;2023-03-23T15:14:02;1.75;;;0.70;;
33104;SDS011;19476;51.448;6.674;2023-03-23T15:16:34;2.20;;;0.80;;
33104;SDS011;19476;51.448;6.674;2023-03-23T15:19:20;2.67;;;0.70;;
33104;SDS011;19476;51.448;6.674;2023-03-23T15:22:13;1.67;;;0.75;;
33104;SDS011;19476;51.448;6.674;2023-03-23T15:24:52;2.35;;;0.80;;
33104;SDS011;19476;51.448;6.674;2023-03-23T15:27:32;2.40;;;0.60;;
33104;SDS011;19476;51.448;6.674;2023-03-23T15:30:00;1.35;;;0.70;;
33104;SDS011;19476;51.448;6.674;2023-03-23T15:32:39;1.97;;;0.57;;
33104;SDS011;19476;51.448;6.674;2023-03-23T15:35:14;1.65;;;0.70;;
33104;SDS011;19476;51.448;6.674;2023-03-23T15:37:43;2.67;;;0.80;;
33104;SDS011;19476;51.448;6.674;2023-03-23T15:40:34;2.40;;;0.75;;
33104;SDS011;19476;51.448;6.674;2023-03-23T15:43:08;4.82;;;0.70;;
33104;SDS011;19476;51.448;6.674;2023-03-23T15:48:28;2.80;;;1.05;;
33104;SDS011;19476;51.448;6.674;2023-03-23T15:53:35;3.08;;;0.95;;
33104;SDS011;19476;51.448;6.674;2023-03-23T15:56:03;3.92;;;1.23;;
33104;SDS011;19476;51.448;6.674;2023-03-23T15:58:31;4.20;;;1.42;;
33104;SDS011;19476;51.448;6.674;2023-03-23T16:01:05;3.53;;;1.23;;
33104;SDS011;19476;51.448;6.674;2023-03-23T16:03:54;2.60;;;1.00;;
33104;SDS011;19476;51.448;6.674;2023-03-23T16:06:38;3.40;;;0.82;;
33104;SDS011;19476;51.448;6.674;2023-03-23T16:09:05;4.25;;;1.20;;
33104;SDS011;19476;51.448;6.674;2023-03-23T16:11:35;3.60;;;1.20;;
33104;SDS011;19476;51.448;6.674;2023-03-23T16:14:01;3.58;;;1.00;;
33104;SDS011;19476;51.448;6.674;2023-03-23T16:16:28;3.13;;;1.10;;
33104;SDS011;19476;51.448;6.674;2023-03-23T16:18:58;5.60;;;1.70;;
33104;SDS011;19476;51.448;6.674;2023-03-23T16:21:24;3.95;;;1.23;;
33104;SDS011;19476;51.448;6.674;2023-03-23T16:23:54;2.40;;;0.85;;
33104;SDS011;19476;51.448;6.674;2023-03-23T16:26:21;4.40;;;1.48;;
33104;SDS011;19476;51.448;6.674;2023-03-23T16:28:47;3.58;;;0.85;;
33104;SDS011;19476;51.448;6.674;2023-03-23T16:31:13;3.22;;;1.17;;
33104;SDS011;19476;51.448;6.674;2023-03-23T16:33:39;3.47;;;0.90;;
33104;SDS011;19476;51.448;6.674;2023-03-23T16:36:06;1.33;;;0.70;;
33104;SDS011;19476;51.448;6.674;2023-03-23T16:38:38;3.78;;;1.08;;
33104;SDS011;19476;51.448;6.674;2023-03-23T16:41:05;2.15;;;1.25;;
33104;SDS011;19476;51.448;6.674;2023-03-23T16:43:32;3.47;;;1.33;;
33104;SDS011;19476;51.448;6.674;2023-03-23T16:45:58;3.78;;;1.35;;
33104;SDS011;19476;51.448;6.674;2023-03-23T16:48:24;3.50;;;1.05;;
33104;SDS011;19476;51.448;6.674;2023-03-23T16:50:51;3.70;;;1.25;;
33104;SDS011;19476;51.448;6.674;2023-03-23T16:53:19;3.60;;;1.35;;
33104;SDS011;19476;51.448;6.674;2023-03-23T16:55:46;3.78;;;1.20;;
33104;SDS011;19476;51.448;6.674;2023-03-23T16:58:15;5.95;;;2.00;;
33104;SDS011;19476;51.448;6.674;2023-03-23T17:00:41;9.43;;;4.00;;
33104;SDS011;19476;51.448;6.674;2023-03-23T17:03:16;10.43;;;4.78;;
33104;SDS011;19476;51.448;6.674;2023-03-23T17:05:43;9.57;;;3.03;;
33104;SDS011;19476;51.448;6.674;2023-03-23T17:08:10;7.78;;;2.25;;
33104;SDS011;19476;51.448;6.674;2023-03-23T17:10:37;3.30;;;1.50;;
33104;SDS011;19476;51.448;6.674;2023-03-23T17:13:04;5.32;;;1.58;;
33104;SDS011;19476;51.448;6.674;2023-03-23T17:15:30;3.75;;;1.33;;
33104;SDS011;19476;51.448;6.674;2023-03-23T17:17:56;4.68;;;1.73;;